West Coast Haida Gwaii - southern half: Past 24 Hour Conditions

 

Sentry Shoal - 46131

09:00 PM PST 13 February 2016Buoy position: 49.92N 125.0W
Disclaimer

This table is a summary of hourly weather conditions for the past 24 hours.
Please note that these observations might not always be representative of weather conditions over their associated marine area.

Date / Time
(PST)
Wind(knots) Wave height(m) Wave period(s) Pressure(kPa) Air tempC) Water tempC)
13 February 2016
21:00 S 14 gust 18 1.2 5.0 101.6 8 9
20:00 SE 19 gust 25 1.3 6.0 101.5 8 9
19:00 SSE 21 gust 25 1.5 5.0 101.4 8 9
18:00 SE 23 gust 27 1.7 6.0 101.3 8 9
17:00 N/A 1.9 5.0 101.3 8 9
16:00 SE 25 gust 33 1.8 6.0 101.4 8 9
15:00 SE 29 gust 37 1.7 5.0 101.3 8 9
14:00 SE 31 gust 37 1.8 5.0 101.4 8 8
13:00 ESE 25 gust 33 1.5 4.0 101.6 8 8
12:00 ESE 23 gust 27 1.3 5.0 101.7 8 8
11:00 ESE 19 gust 23 1.2 4.0 101.8 8 8
10:00 ESE 19 gust 23 1.0 4.0 101.9 8 8
9:00 ESE 19 gust 25 1.0 4.0 101.9 8 8
8:00 SE 19 gust 23 0.8 4.0 101.9 8 8
7:00 SE 16 gust 18 0.5 3.0 101.9 8 8
6:00 SE 12 gust 16 0.4 4.0 102.0 8 8
5:00 SE 12 gust 14 0.6 4.0 102.0 8 8
4:00 ESE 14 gust 16 0.5 3.0 101.9 8 8
3:00 SE 10 gust 14 0.5 4.0 102.0 8 8
2:00 ESE 10 gust 10 0.5 4.0 101.9 8 8
1:00 SE 10 gust 14 0.6 4.0 101.8 8 8
0:00 S 12 gust 14 0.6 4.0 101.8 9 8
12 February 2016
23:00 SSE 12 gust 16 0.7 4.0 101.7 9 8
22:00 SE 12 gust 14 0.7 4.0 101.7 9 8
21:00 SSE 14 gust 16 0.6 4.0 101.7 9 8

Zoom-in to make a selection

Map of Pacific - South Coast marine weather areas Tsawwassen Ferry Terminal South Nomad - 46036 Sentry Shoal - 46131 South Brooks - 46132 Halibut Bank - 46146 South Moresby - 46147 South Hecate Strait - 46185 West Sea Otter - 46204 La Perouse Bank - 46206 East Dellwood - 46207 Discovery Island Esquimalt Harbour Kelp Reefs Malahat Race Rocks Lightstation Saturna Island Sheringham Point University of Victoria Victoria Gonzales Victoria Int'l Airport Ballenas Islands Campbell River Airport Comox Airport Entrance Island Fanny Island Nanaimo Airport Port Hardy Airport Sisters Islets Estevan Point Sartine Island Solander Island Tofino Airport Grief Point Powell River Airport Sechelt Cape St.James Bella Bella Airport Bella Coola Airport Cathedral Point Herbert Island Point Atkinson Sand Heads Lightstation Vancouver Harbour Vancouver Int'l Airport West Vancouver Port Alberni Howe Sound - Pam Rocks Squamish Airport
Legend:
buoy Buoy
land station Land Station

Pacific - South Coast Area

Another Region

What we are doing

Date modified: